Terminal Aerodrome Forecast
Issued by NWS

Home | Current Version | Previous Version | Text Only | Print | Product List | Glossary On
Versions: 1 2 3 4 5 6 7 8 9 10 11 12 13 14 15 16
000
FTUS41 KCAR 241428 AAA
TAFBHB
TAF AMD
KBHB 241428Z 2414/2512 15012G22KT 6SM -RA BR OVC015 WS020/18060KT
      TEMPO 2414/2418 3SM -RA BR OVC008
     FM241800 16018G28KT 3SM -RA BR OVC005 WS020/18060KT
     FM242000 17012G22KT 2SM -DZ BR OVC004
     FM250600 21012G22KT P6SM BKN025
      AMD LTD TO CLD VIS AND WIND=

USA.gov is the U.S. government's official web portal to all federal, state and local government web resources and services.